sensor_id;sensor_type;location;lat;lon;timestamp;P1;durP1;ratioP1;P2;durP2;ratioP2
18048;SDS011;9149;47.002;8.604;2022-08-20T00:02:11;11.45;;;4.88;;
18048;SDS011;9149;47.002;8.604;2022-08-20T00:04:39;15.05;;;5.38;;
18048;SDS011;9149;47.002;8.604;2022-08-20T00:07:07;9.80;;;5.32;;
18048;SDS011;9149;47.002;8.604;2022-08-20T00:09:35;9.95;;;5.03;;
18048;SDS011;9149;47.002;8.604;2022-08-20T00:12:03;8.85;;;4.70;;
18048;SDS011;9149;47.002;8.604;2022-08-20T00:14:31;10.70;;;4.78;;
18048;SDS011;9149;47.002;8.604;2022-08-20T00:17:00;8.18;;;4.65;;
18048;SDS011;9149;47.002;8.604;2022-08-20T00:19:28;10.13;;;5.18;;
18048;SDS011;9149;47.002;8.604;2022-08-20T00:21:56;10.38;;;5.35;;
18048;SDS011;9149;47.002;8.604;2022-08-20T00:24:24;10.77;;;5.30;;
18048;SDS011;9149;47.002;8.604;2022-08-20T00:26:52;11.00;;;5.75;;
18048;SDS011;9149;47.002;8.604;2022-08-20T00:29:19;16.35;;;5.28;;
18048;SDS011;9149;47.002;8.604;2022-08-20T00:31:48;11.60;;;6.07;;
18048;SDS011;9149;47.002;8.604;2022-08-20T00:34:17;12.68;;;5.43;;
18048;SDS011;9149;47.002;8.604;2022-08-20T00:36:44;9.80;;;5.15;;
18048;SDS011;9149;47.002;8.604;2022-08-20T00:39:12;11.40;;;5.43;;
18048;SDS011;9149;47.002;8.604;2022-08-20T00:41:40;9.30;;;5.47;;
18048;SDS011;9149;47.002;8.604;2022-08-20T00:44:10;9.25;;;5.22;;
18048;SDS011;9149;47.002;8.604;2022-08-20T00:46:38;9.27;;;5.07;;
18048;SDS011;9149;47.002;8.604;2022-08-20T00:49:07;13.75;;;5.40;;
18048;SDS011;9149;47.002;8.604;2022-08-20T00:51:38;11.13;;;5.50;;
18048;SDS011;9149;47.002;8.604;2022-08-20T00:54:11;11.93;;;5.72;;
18048;SDS011;9149;47.002;8.604;2022-08-20T00:56:40;7.90;;;4.75;;
18048;SDS011;9149;47.002;8.604;2022-08-20T00:59:25;11.50;;;5.20;;
18048;SDS011;9149;47.002;8.604;2022-08-20T01:01:53;8.88;;;4.55;;
18048;SDS011;9149;47.002;8.604;2022-08-20T01:04:23;10.00;;;5.18;;
18048;SDS011;9149;47.002;8.604;2022-08-20T01:06:52;15.75;;;5.57;;
18048;SDS011;9149;47.002;8.604;2022-08-20T01:09:21;10.52;;;5.63;;
18048;SDS011;9149;47.002;8.604;2022-08-20T01:12:09;10.73;;;5.07;;
18048;SDS011;9149;47.002;8.604;2022-08-20T01:14:37;14.20;;;6.40;;
18048;SDS011;9149;47.002;8.604;2022-08-20T01:17:10;12.45;;;6.30;;
18048;SDS011;9149;47.002;8.604;2022-08-20T01:19:42;10.70;;;5.95;;
18048;SDS011;9149;47.002;8.604;2022-08-20T01:22:12;11.18;;;5.80;;
18048;SDS011;9149;47.002;8.604;2022-08-20T01:24:49;15.10;;;6.90;;
18048;SDS011;9149;47.002;8.604;2022-08-20T01:27:19;15.30;;;7.82;;
18048;SDS011;9149;47.002;8.604;2022-08-20T01:29:49;18.10;;;8.27;;
18048;SDS011;9149;47.002;8.604;2022-08-20T01:32:17;21.27;;;8.52;;
18048;SDS011;9149;47.002;8.604;2022-08-20T01:34:45;16.45;;;7.13;;
18048;SDS011;9149;47.002;8.604;2022-08-20T01:37:13;18.13;;;8.38;;
18048;SDS011;9149;47.002;8.604;2022-08-20T01:39:41;18.38;;;8.38;;
18048;SDS011;9149;47.002;8.604;2022-08-20T01:42:10;15.07;;;7.85;;
18048;SDS011;9149;47.002;8.604;2022-08-20T01:44:41;17.80;;;7.93;;
18048;SDS011;9149;47.002;8.604;2022-08-20T01:47:11;16.35;;;8.07;;
18048;SDS011;9149;47.002;8.604;2022-08-20T01:49:42;15.30;;;7.45;;
18048;SDS011;9149;47.002;8.604;2022-08-20T01:52:11;16.02;;;7.88;;
18048;SDS011;9149;47.002;8.604;2022-08-20T01:54:41;18.00;;;8.00;;
18048;SDS011;9149;47.002;8.604;2022-08-20T01:57:09;15.75;;;7.95;;
18048;SDS011;9149;47.002;8.604;2022-08-20T01:59:39;14.10;;;7.65;;
18048;SDS011;9149;47.002;8.604;2022-08-20T02:02:08;17.88;;;8.23;;
18048;SDS011;9149;47.002;8.604;2022-08-20T02:04:36;21.48;;;9.02;;
18048;SDS011;9149;47.002;8.604;2022-08-20T02:07:06;21.08;;;8.02;;
18048;SDS011;9149;47.002;8.604;2022-08-20T02:09:34;14.27;;;7.07;;
18048;SDS011;9149;47.002;8.604;2022-08-20T02:12:04;10.40;;;5.47;;
18048;SDS011;9149;47.002;8.604;2022-08-20T02:14:32;10.55;;;5.45;;
18048;SDS011;9149;47.002;8.604;2022-08-20T02:17:00;11.55;;;5.70;;
18048;SDS011;9149;47.002;8.604;2022-08-20T02:19:31;11.68;;;5.95;;
18048;SDS011;9149;47.002;8.604;2022-08-20T02:22:01;18.13;;;7.05;;
18048;SDS011;9149;47.002;8.604;2022-08-20T02:24:29;12.48;;;6.40;;
18048;SDS011;9149;47.002;8.604;2022-08-20T02:26:57;13.38;;;5.57;;
18048;SDS011;9149;47.002;8.604;2022-08-20T02:29:25;10.13;;;5.65;;
18048;SDS011;9149;47.002;8.604;2022-08-20T02:31:53;11.75;;;6.10;;
18048;SDS011;9149;47.002;8.604;2022-08-20T02:34:41;11.60;;;6.15;;
18048;SDS011;9149;47.002;8.604;2022-08-20T02:37:09;13.32;;;6.05;;
18048;SDS011;9149;47.002;8.604;2022-08-20T02:39:40;13.57;;;6.43;;
18048;SDS011;9149;47.002;8.604;2022-08-20T02:42:07;18.73;;;7.25;;
18048;SDS011;9149;47.002;8.604;2022-08-20T02:44:38;17.35;;;7.90;;
18048;SDS011;9149;47.002;8.604;2022-08-20T02:47:06;15.55;;;7.72;;
18048;SDS011;9149;47.002;8.604;2022-08-20T02:49:34;12.75;;;7.05;;
18048;SDS011;9149;47.002;8.604;2022-08-20T02:52:03;14.35;;;7.47;;
18048;SDS011;9149;47.002;8.604;2022-08-20T02:54:31;14.10;;;7.32;;
18048;SDS011;9149;47.002;8.604;2022-08-20T02:56:58;13.48;;;6.97;;
18048;SDS011;9149;47.002;8.604;2022-08-20T02:59:27;17.38;;;7.00;;
18048;SDS011;9149;47.002;8.604;2022-08-20T03:01:55;11.50;;;6.10;;
18048;SDS011;9149;47.002;8.604;2022-08-20T03:04:26;11.38;;;6.47;;
18048;SDS011;9149;47.002;8.604;2022-08-20T03:06:54;11.68;;;5.40;;
18048;SDS011;9149;47.002;8.604;2022-08-20T03:09:23;12.35;;;6.45;;
18048;SDS011;9149;47.002;8.604;2022-08-20T03:11:51;12.57;;;6.25;;
18048;SDS011;9149;47.002;8.604;2022-08-20T03:14:19;12.43;;;6.25;;
18048;SDS011;9149;47.002;8.604;2022-08-20T03:16:47;12.45;;;6.40;;
18048;SDS011;9149;47.002;8.604;2022-08-20T03:19:15;12.70;;;6.57;;
18048;SDS011;9149;47.002;8.604;2022-08-20T03:21:43;10.20;;;5.75;;
18048;SDS011;9149;47.002;8.604;2022-08-20T03:24:10;11.50;;;5.90;;
18048;SDS011;9149;47.002;8.604;2022-08-20T03:26:39;11.80;;;5.90;;
18048;SDS011;9149;47.002;8.604;2022-08-20T03:29:08;14.07;;;7.05;;
18048;SDS011;9149;47.002;8.604;2022-08-20T03:31:36;11.25;;;5.47;;
18048;SDS011;9149;47.002;8.604;2022-08-20T03:34:04;11.88;;;5.63;;
18048;SDS011;9149;47.002;8.604;2022-08-20T03:36:32;14.02;;;5.90;;
18048;SDS011;9149;47.002;8.604;2022-08-20T03:39:00;10.73;;;5.10;;
18048;SDS011;9149;47.002;8.604;2022-08-20T03:41:28;10.20;;;5.88;;
18048;SDS011;9149;47.002;8.604;2022-08-20T03:43:58;11.52;;;6.03;;
18048;SDS011;9149;47.002;8.604;2022-08-20T03:46:26;16.80;;;5.80;;
18048;SDS011;9149;47.002;8.604;2022-08-20T03:48:54;9.25;;;5.47;;
18048;SDS011;9149;47.002;8.604;2022-08-20T03:51:26;11.65;;;6.22;;
18048;SDS011;9149;47.002;8.604;2022-08-20T03:53:54;10.30;;;5.63;;
18048;SDS011;9149;47.002;8.604;2022-08-20T03:56:22;10.13;;;5.30;;
18048;SDS011;9149;47.002;8.604;2022-08-20T03:58:50;9.82;;;5.50;;
18048;SDS011;9149;47.002;8.604;2022-08-20T04:01:19;12.23;;;4.97;;
18048;SDS011;9149;47.002;8.604;2022-08-20T04:04:07;10.18;;;5.65;;
18048;SDS011;9149;47.002;8.604;2022-08-20T04:06:37;13.52;;;5.72;;
18048;SDS011;9149;47.002;8.604;2022-08-20T04:09:06;10.82;;;4.97;;
18048;SDS011;9149;47.002;8.604;2022-08-20T04:11:35;14.60;;;5.70;;
18048;SDS011;9149;47.002;8.604;2022-08-20T04:14:03;12.43;;;4.68;;
18048;SDS011;9149;47.002;8.604;2022-08-20T04:16:32;9.45;;;5.07;;
18048;SDS011;9149;47.002;8.604;2022-08-20T04:19:00;10.25;;;4.80;;
18048;SDS011;9149;47.002;8.604;2022-08-20T04:21:29;7.57;;;4.50;;
18048;SDS011;9149;47.002;8.604;2022-08-20T04:23:59;7.85;;;4.25;;
18048;SDS011;9149;47.002;8.604;2022-08-20T04:26:27;11.98;;;4.88;;
18048;SDS011;9149;47.002;8.604;2022-08-20T04:28:55;6.80;;;3.90;;
18048;SDS011;9149;47.002;8.604;2022-08-20T04:31:23;9.40;;;4.32;;
18048;SDS011;9149;47.002;8.604;2022-08-20T04:33:59;6.50;;;4.15;;
18048;SDS011;9149;47.002;8.604;2022-08-20T04:36:27;8.30;;;4.28;;
18048;SDS011;9149;47.002;8.604;2022-08-20T04:38:55;9.45;;;5.00;;
18048;SDS011;9149;47.002;8.604;2022-08-20T04:41:23;12.50;;;5.10;;
18048;SDS011;9149;47.002;8.604;2022-08-20T04:43:51;8.43;;;4.50;;
18048;SDS011;9149;47.002;8.604;2022-08-20T04:46:20;9.65;;;4.53;;
18048;SDS011;9149;47.002;8.604;2022-08-20T04:48:49;9.13;;;4.90;;
18048;SDS011;9149;47.002;8.604;2022-08-20T04:51:18;7.35;;;4.15;;
18048;SDS011;9149;47.002;8.604;2022-08-20T04:53:49;10.05;;;4.13;;
18048;SDS011;9149;47.002;8.604;2022-08-20T04:56:19;6.80;;;3.90;;
18048;SDS011;9149;47.002;8.604;2022-08-20T04:58:49;8.95;;;4.18;;
18048;SDS011;9149;47.002;8.604;2022-08-20T05:01:18;7.00;;;4.03;;
18048;SDS011;9149;47.002;8.604;2022-08-20T05:03:46;8.70;;;4.60;;
18048;SDS011;9149;47.002;8.604;2022-08-20T05:06:14;7.80;;;4.28;;
18048;SDS011;9149;47.002;8.604;2022-08-20T05:08:44;8.98;;;4.82;;
18048;SDS011;9149;47.002;8.604;2022-08-20T05:11:12;10.55;;;4.53;;
18048;SDS011;9149;47.002;8.604;2022-08-20T05:14:00;10.85;;;4.72;;
18048;SDS011;9149;47.002;8.604;2022-08-20T05:16:28;12.25;;;5.50;;
18048;SDS011;9149;47.002;8.604;2022-08-20T05:18:56;10.32;;;5.20;;
18048;SDS011;9149;47.002;8.604;2022-08-20T05:21:24;12.07;;;5.20;;
18048;SDS011;9149;47.002;8.604;2022-08-20T05:23:53;8.30;;;4.60;;
18048;SDS011;9149;47.002;8.604;2022-08-20T05:26:21;7.68;;;4.47;;
18048;SDS011;9149;47.002;8.604;2022-08-20T05:28:51;10.18;;;5.07;;
18048;SDS011;9149;47.002;8.604;2022-08-20T05:31:24;13.45;;;5.10;;
18048;SDS011;9149;47.002;8.604;2022-08-20T05:34:00;13.20;;;5.50;;
18048;SDS011;9149;47.002;8.604;2022-08-20T05:36:27;10.98;;;5.13;;
18048;SDS011;9149;47.002;8.604;2022-08-20T05:38:57;10.75;;;5.72;;
18048;SDS011;9149;47.002;8.604;2022-08-20T05:41:24;12.18;;;5.80;;
18048;SDS011;9149;47.002;8.604;2022-08-20T05:43:56;8.40;;;5.03;;
18048;SDS011;9149;47.002;8.604;2022-08-20T05:46:26;9.95;;;5.13;;
18048;SDS011;9149;47.002;8.604;2022-08-20T05:48:53;9.13;;;4.68;;
18048;SDS011;9149;47.002;8.604;2022-08-20T05:51:25;9.40;;;4.85;;
18048;SDS011;9149;47.002;8.604;2022-08-20T05:53:53;10.35;;;5.68;;
18048;SDS011;9149;47.002;8.604;2022-08-20T05:56:25;10.73;;;5.55;;
18048;SDS011;9149;47.002;8.604;2022-08-20T05:58:53;8.70;;;4.20;;
18048;SDS011;9149;47.002;8.604;2022-08-20T06:01:21;6.63;;;4.05;;
18048;SDS011;9149;47.002;8.604;2022-08-20T06:03:49;6.13;;;3.92;;
18048;SDS011;9149;47.002;8.604;2022-08-20T06:06:26;10.18;;;4.78;;
18048;SDS011;9149;47.002;8.604;2022-08-20T06:09:12;7.88;;;3.95;;
18048;SDS011;9149;47.002;8.604;2022-08-20T06:11:41;13.18;;;5.03;;
18048;SDS011;9149;47.002;8.604;2022-08-20T06:14:09;11.35;;;5.38;;
18048;SDS011;9149;47.002;8.604;2022-08-20T06:16:37;9.80;;;5.32;;
18048;SDS011;9149;47.002;8.604;2022-08-20T06:19:22;10.98;;;4.63;;
18048;SDS011;9149;47.002;8.604;2022-08-20T06:21:51;10.48;;;5.80;;
18048;SDS011;9149;47.002;8.604;2022-08-20T06:24:19;11.15;;;5.00;;
18048;SDS011;9149;47.002;8.604;2022-08-20T06:26:50;13.55;;;5.55;;
18048;SDS011;9149;47.002;8.604;2022-08-20T06:29:21;12.95;;;6.00;;
18048;SDS011;9149;47.002;8.604;2022-08-20T06:31:48;12.60;;;5.72;;
18048;SDS011;9149;47.002;8.604;2022-08-20T06:34:17;10.80;;;5.85;;
18048;SDS011;9149;47.002;8.604;2022-08-20T06:36:44;10.90;;;5.43;;
18048;SDS011;9149;47.002;8.604;2022-08-20T06:39:13;10.88;;;5.88;;
18048;SDS011;9149;47.002;8.604;2022-08-20T06:41:41;9.77;;;4.68;;
18048;SDS011;9149;47.002;8.604;2022-08-20T06:44:10;8.27;;;4.63;;
18048;SDS011;9149;47.002;8.604;2022-08-20T06:46:38;11.82;;;4.30;;
18048;SDS011;9149;47.002;8.604;2022-08-20T06:49:06;10.13;;;4.70;;
18048;SDS011;9149;47.002;8.604;2022-08-20T06:51:35;11.13;;;4.57;;
18048;SDS011;9149;47.002;8.604;2022-08-20T06:54:05;8.07;;;4.18;;
18048;SDS011;9149;47.002;8.604;2022-08-20T06:56:33;8.68;;;4.63;;
18048;SDS011;9149;47.002;8.604;2022-08-20T06:59:01;12.90;;;4.43;;
18048;SDS011;9149;47.002;8.604;2022-08-20T07:01:30;11.57;;;4.70;;
18048;SDS011;9149;47.002;8.604;2022-08-20T07:03:58;9.05;;;4.50;;
18048;SDS011;9149;47.002;8.604;2022-08-20T07:06:26;11.73;;;4.50;;
18048;SDS011;9149;47.002;8.604;2022-08-20T07:08:54;7.97;;;4.18;;
18048;SDS011;9149;47.002;8.604;2022-08-20T07:11:21;7.03;;;4.20;;
18048;SDS011;9149;47.002;8.604;2022-08-20T07:13:54;9.15;;;4.97;;
18048;SDS011;9149;47.002;8.604;2022-08-20T07:16:22;9.55;;;5.10;;
18048;SDS011;9149;47.002;8.604;2022-08-20T07:18:51;9.43;;;5.50;;
18048;SDS011;9149;47.002;8.604;2022-08-20T07:21:19;9.55;;;5.30;;
18048;SDS011;9149;47.002;8.604;2022-08-20T07:23:47;10.07;;;4.82;;
18048;SDS011;9149;47.002;8.604;2022-08-20T07:26:15;8.85;;;5.25;;
18048;SDS011;9149;47.002;8.604;2022-08-20T07:28:43;12.90;;;6.38;;
18048;SDS011;9149;47.002;8.604;2022-08-20T07:31:11;13.02;;;6.00;;
18048;SDS011;9149;47.002;8.604;2022-08-20T07:33:48;10.88;;;5.40;;
18048;SDS011;9149;47.002;8.604;2022-08-20T07:36:20;10.45;;;4.82;;
18048;SDS011;9149;47.002;8.604;2022-08-20T07:38:48;8.70;;;4.75;;
18048;SDS011;9149;47.002;8.604;2022-08-20T07:41:18;8.10;;;4.35;;
18048;SDS011;9149;47.002;8.604;2022-08-20T07:43:46;8.98;;;4.55;;
18048;SDS011;9149;47.002;8.604;2022-08-20T07:46:16;7.13;;;4.18;;
18048;SDS011;9149;47.002;8.604;2022-08-20T07:48:46;7.20;;;3.80;;
18048;SDS011;9149;47.002;8.604;2022-08-20T07:51:16;5.70;;;3.03;;
18048;SDS011;9149;47.002;8.604;2022-08-20T07:53:47;6.43;;;2.95;;
18048;SDS011;9149;47.002;8.604;2022-08-20T07:56:16;3.88;;;2.60;;
18048;SDS011;9149;47.002;8.604;2022-08-20T07:58:47;4.50;;;2.67;;
18048;SDS011;9149;47.002;8.604;2022-08-20T08:01:16;5.00;;;2.67;;
18048;SDS011;9149;47.002;8.604;2022-08-20T08:03:44;5.78;;;2.70;;
18048;SDS011;9149;47.002;8.604;2022-08-20T08:06:16;6.28;;;2.80;;
18048;SDS011;9149;47.002;8.604;2022-08-20T08:08:59;5.15;;;2.58;;
18048;SDS011;9149;47.002;8.604;2022-08-20T08:11:28;2.92;;;2.08;;
18048;SDS011;9149;47.002;8.604;2022-08-20T08:13:55;4.60;;;2.00;;
18048;SDS011;9149;47.002;8.604;2022-08-20T08:16:25;6.60;;;2.25;;
18048;SDS011;9149;47.002;8.604;2022-08-20T08:18:54;2.78;;;1.83;;
18048;SDS011;9149;47.002;8.604;2022-08-20T08:21:23;2.60;;;1.85;;
18048;SDS011;9149;47.002;8.604;2022-08-20T08:23:51;4.25;;;1.83;;
18048;SDS011;9149;47.002;8.604;2022-08-20T08:26:21;3.08;;;1.75;;
18048;SDS011;9149;47.002;8.604;2022-08-20T08:28:49;2.58;;;1.70;;
18048;SDS011;9149;47.002;8.604;2022-08-20T08:31:16;2.28;;;1.65;;
18048;SDS011;9149;47.002;8.604;2022-08-20T08:33:44;3.28;;;1.60;;
18048;SDS011;9149;47.002;8.604;2022-08-20T08:36:13;2.45;;;1.60;;
18048;SDS011;9149;47.002;8.604;2022-08-20T08:38:42;3.10;;;1.77;;
18048;SDS011;9149;47.002;8.604;2022-08-20T08:41:13;2.22;;;1.60;;
18048;SDS011;9149;47.002;8.604;2022-08-20T08:43:43;2.05;;;1.45;;
18048;SDS011;9149;47.002;8.604;2022-08-20T08:46:14;3.33;;;1.63;;
18048;SDS011;9149;47.002;8.604;2022-08-20T08:48:44;1.98;;;1.60;;
18048;SDS011;9149;47.002;8.604;2022-08-20T08:51:14;1.92;;;1.50;;
18048;SDS011;9149;47.002;8.604;2022-08-20T08:53:44;1.75;;;1.40;;
18048;SDS011;9149;47.002;8.604;2022-08-20T08:56:13;2.33;;;1.20;;
18048;SDS011;9149;47.002;8.604;2022-08-20T08:58:41;1.95;;;1.25;;
18048;SDS011;9149;47.002;8.604;2022-08-20T09:01:13;2.10;;;1.42;;
18048;SDS011;9149;47.002;8.604;2022-08-20T09:04:01;2.63;;;1.60;;
18048;SDS011;9149;47.002;8.604;2022-08-20T09:06:31;1.85;;;1.10;;
18048;SDS011;9149;47.002;8.604;2022-08-20T09:08:59;1.75;;;1.42;;
18048;SDS011;9149;47.002;8.604;2022-08-20T09:11:28;1.67;;;1.17;;
18048;SDS011;9149;47.002;8.604;2022-08-20T09:13:56;2.55;;;1.52;;
18048;SDS011;9149;47.002;8.604;2022-08-20T09:16:25;2.40;;;1.30;;
18048;SDS011;9149;47.002;8.604;2022-08-20T09:19:14;1.45;;;1.13;;
18048;SDS011;9149;47.002;8.604;2022-08-20T09:21:41;2.15;;;1.50;;
18048;SDS011;9149;47.002;8.604;2022-08-20T09:24:09;7.03;;;2.05;;
18048;SDS011;9149;47.002;8.604;2022-08-20T09:26:38;2.60;;;1.70;;
18048;SDS011;9149;47.002;8.604;2022-08-20T09:29:05;2.88;;;2.15;;
18048;SDS011;9149;47.002;8.604;2022-08-20T09:31:35;3.15;;;2.10;;
18048;SDS011;9149;47.002;8.604;2022-08-20T09:34:04;2.55;;;1.90;;
18048;SDS011;9149;47.002;8.604;2022-08-20T09:36:32;4.40;;;1.88;;
18048;SDS011;9149;47.002;8.604;2022-08-20T09:39:00;2.10;;;1.52;;
18048;SDS011;9149;47.002;8.604;2022-08-20T09:41:29;2.67;;;1.80;;
18048;SDS011;9149;47.002;8.604;2022-08-20T09:44:00;3.17;;;2.08;;
18048;SDS011;9149;47.002;8.604;2022-08-20T09:46:28;2.38;;;1.50;;
18048;SDS011;9149;47.002;8.604;2022-08-20T09:48:57;2.65;;;1.50;;
18048;SDS011;9149;47.002;8.604;2022-08-20T09:51:25;1.60;;;1.27;;
18048;SDS011;9149;47.002;8.604;2022-08-20T09:53:53;2.58;;;1.50;;
18048;SDS011;9149;47.002;8.604;2022-08-20T09:56:22;2.75;;;1.50;;
18048;SDS011;9149;47.002;8.604;2022-08-20T09:58:52;2.53;;;1.38;;
18048;SDS011;9149;47.002;8.604;2022-08-20T10:01:26;4.57;;;1.55;;
18048;SDS011;9149;47.002;8.604;2022-08-20T10:03:54;1.83;;;1.15;;
18048;SDS011;9149;47.002;8.604;2022-08-20T10:06:23;1.80;;;1.27;;
18048;SDS011;9149;47.002;8.604;2022-08-20T10:08:50;2.38;;;1.77;;
18048;SDS011;9149;47.002;8.604;2022-08-20T10:11:18;2.17;;;1.60;;
18048;SDS011;9149;47.002;8.604;2022-08-20T10:13:46;2.60;;;1.60;;
18048;SDS011;9149;47.002;8.604;2022-08-20T10:16:14;2.47;;;1.60;;
18048;SDS011;9149;47.002;8.604;2022-08-20T10:18:42;1.65;;;1.48;;
18048;SDS011;9149;47.002;8.604;2022-08-20T10:21:09;1.67;;;1.38;;
18048;SDS011;9149;47.002;8.604;2022-08-20T10:23:39;1.35;;;0.93;;
18048;SDS011;9149;47.002;8.604;2022-08-20T10:26:07;3.47;;;1.08;;
18048;SDS011;9149;47.002;8.604;2022-08-20T10:28:35;1.50;;;1.10;;
18048;SDS011;9149;47.002;8.604;2022-08-20T10:31:04;2.65;;;1.38;;
18048;SDS011;9149;47.002;8.604;2022-08-20T10:33:33;3.17;;;2.00;;
18048;SDS011;9149;47.002;8.604;2022-08-20T10:36:04;3.72;;;2.28;;
18048;SDS011;9149;47.002;8.604;2022-08-20T10:38:32;3.13;;;1.88;;
18048;SDS011;9149;47.002;8.604;2022-08-20T10:41:01;3.20;;;2.00;;
18048;SDS011;9149;47.002;8.604;2022-08-20T10:43:29;1.40;;;1.10;;
18048;SDS011;9149;47.002;8.604;2022-08-20T10:45:57;3.42;;;1.30;;
18048;SDS011;9149;47.002;8.604;2022-08-20T10:48:25;1.67;;;1.00;;
18048;SDS011;9149;47.002;8.604;2022-08-20T10:50:53;2.95;;;0.80;;
18048;SDS011;9149;47.002;8.604;2022-08-20T10:53:21;1.00;;;0.90;;
18048;SDS011;9149;47.002;8.604;2022-08-20T10:55:48;1.40;;;0.82;;
18048;SDS011;9149;47.002;8.604;2022-08-20T10:58:17;2.28;;;1.30;;
18048;SDS011;9149;47.002;8.604;2022-08-20T11:00:49;2.03;;;1.52;;
18048;SDS011;9149;47.002;8.604;2022-08-20T11:03:17;2.30;;;1.52;;
18048;SDS011;9149;47.002;8.604;2022-08-20T11:05:46;2.25;;;1.60;;
18048;SDS011;9149;47.002;8.604;2022-08-20T11:08:14;2.08;;;1.50;;
18048;SDS011;9149;47.002;8.604;2022-08-20T11:11:00;2.28;;;1.50;;
18048;SDS011;9149;47.002;8.604;2022-08-20T11:13:29;2.33;;;1.30;;
18048;SDS011;9149;47.002;8.604;2022-08-20T11:15:56;2.00;;;1.30;;
18048;SDS011;9149;47.002;8.604;2022-08-20T11:18:24;1.38;;;1.00;;
18048;SDS011;9149;47.002;8.604;2022-08-20T11:20:52;1.98;;;1.40;;
18048;SDS011;9149;47.002;8.604;2022-08-20T11:23:20;2.42;;;1.80;;
18048;SDS011;9149;47.002;8.604;2022-08-20T11:25:48;2.88;;;1.80;;
18048;SDS011;9149;47.002;8.604;2022-08-20T11:28:15;3.63;;;1.50;;
18048;SDS011;9149;47.002;8.604;2022-08-20T11:30:59;4.57;;;1.90;;
18048;SDS011;9149;47.002;8.604;2022-08-20T11:33:27;4.07;;;2.47;;
18048;SDS011;9149;47.002;8.604;2022-08-20T11:35:55;3.38;;;1.70;;
18048;SDS011;9149;47.002;8.604;2022-08-20T11:38:23;2.45;;;1.85;;
18048;SDS011;9149;47.002;8.604;2022-08-20T11:40:50;2.95;;;1.70;;
18048;SDS011;9149;47.002;8.604;2022-08-20T11:43:18;2.90;;;1.85;;
18048;SDS011;9149;47.002;8.604;2022-08-20T11:45:46;2.35;;;1.67;;
18048;SDS011;9149;47.002;8.604;2022-08-20T11:48:16;3.95;;;1.70;;
18048;SDS011;9149;47.002;8.604;2022-08-20T11:50:44;3.65;;;1.60;;
18048;SDS011;9149;47.002;8.604;2022-08-20T11:53:12;2.13;;;1.50;;
18048;SDS011;9149;47.002;8.604;2022-08-20T11:55:40;2.95;;;1.45;;
18048;SDS011;9149;47.002;8.604;2022-08-20T11:58:08;2.60;;;1.38;;
18048;SDS011;9149;47.002;8.604;2022-08-20T12:00:36;1.80;;;1.42;;
18048;SDS011;9149;47.002;8.604;2022-08-20T12:03:04;2.45;;;1.25;;
18048;SDS011;9149;47.002;8.604;2022-08-20T12:05:36;1.63;;;1.23;;
18048;SDS011;9149;47.002;8.604;2022-08-20T12:08:04;2.45;;;1.20;;
18048;SDS011;9149;47.002;8.604;2022-08-20T12:10:32;3.55;;;1.25;;
18048;SDS011;9149;47.002;8.604;2022-08-20T12:13:00;1.27;;;1.10;;
18048;SDS011;9149;47.002;8.604;2022-08-20T12:15:30;1.77;;;1.38;;
18048;SDS011;9149;47.002;8.604;2022-08-20T12:17:58;1.67;;;1.20;;
18048;SDS011;9149;47.002;8.604;2022-08-20T12:20:27;1.70;;;1.27;;
18048;SDS011;9149;47.002;8.604;2022-08-20T12:22:56;1.88;;;1.15;;
18048;SDS011;9149;47.002;8.604;2022-08-20T12:25:24;1.63;;;1.15;;
18048;SDS011;9149;47.002;8.604;2022-08-20T12:27:52;1.75;;;1.13;;
18048;SDS011;9149;47.002;8.604;2022-08-20T12:30:21;1.88;;;1.15;;
18048;SDS011;9149;47.002;8.604;2022-08-20T12:32:50;3.75;;;1.20;;
18048;SDS011;9149;47.002;8.604;2022-08-20T12:35:18;2.15;;;1.48;;
18048;SDS011;9149;47.002;8.604;2022-08-20T12:37:45;3.22;;;1.70;;
18048;SDS011;9149;47.002;8.604;2022-08-20T12:40:17;1.77;;;1.25;;
18048;SDS011;9149;47.002;8.604;2022-08-20T12:42:57;3.40;;;1.15;;
18048;SDS011;9149;47.002;8.604;2022-08-20T12:45:25;2.60;;;1.40;;
18048;SDS011;9149;47.002;8.604;2022-08-20T12:47:55;4.07;;;1.33;;
18048;SDS011;9149;47.002;8.604;2022-08-20T12:50:26;1.98;;;1.38;;
18048;SDS011;9149;47.002;8.604;2022-08-20T12:52:57;2.78;;;1.70;;
18048;SDS011;9149;47.002;8.604;2022-08-20T12:55:26;2.53;;;1.80;;
18048;SDS011;9149;47.002;8.604;2022-08-20T12:57:55;3.55;;;2.30;;
18048;SDS011;9149;47.002;8.604;2022-08-20T13:00:25;3.63;;;1.67;;
18048;SDS011;9149;47.002;8.604;2022-08-20T13:02:55;3.08;;;1.90;;
18048;SDS011;9149;47.002;8.604;2022-08-20T13:05:24;3.83;;;2.00;;
18048;SDS011;9149;47.002;8.604;2022-08-20T13:07:51;3.00;;;1.90;;
18048;SDS011;9149;47.002;8.604;2022-08-20T13:10:20;2.75;;;2.08;;
18048;SDS011;9149;47.002;8.604;2022-08-20T13:12:50;3.53;;;2.10;;
18048;SDS011;9149;47.002;8.604;2022-08-20T13:15:18;3.03;;;2.15;;
18048;SDS011;9149;47.002;8.604;2022-08-20T13:17:49;3.88;;;2.47;;
18048;SDS011;9149;47.002;8.604;2022-08-20T13:20:17;5.25;;;2.13;;
18048;SDS011;9149;47.002;8.604;2022-08-20T13:22:45;4.72;;;2.28;;
18048;SDS011;9149;47.002;8.604;2022-08-20T13:25:13;3.65;;;1.95;;
18048;SDS011;9149;47.002;8.604;2022-08-20T13:27:41;3.40;;;2.25;;
18048;SDS011;9149;47.002;8.604;2022-08-20T13:30:11;2.60;;;1.83;;
18048;SDS011;9149;47.002;8.604;2022-08-20T13:32:40;3.53;;;2.10;;
18048;SDS011;9149;47.002;8.604;2022-08-20T13:35:08;3.72;;;2.20;;
18048;SDS011;9149;47.002;8.604;2022-08-20T13:37:37;6.75;;;2.40;;
18048;SDS011;9149;47.002;8.604;2022-08-20T13:40:05;2.88;;;1.92;;
18048;SDS011;9149;47.002;8.604;2022-08-20T13:42:34;3.35;;;2.13;;
18048;SDS011;9149;47.002;8.604;2022-08-20T13:45:02;2.35;;;1.80;;
18048;SDS011;9149;47.002;8.604;2022-08-20T13:47:32;3.40;;;2.13;;
18048;SDS011;9149;47.002;8.604;2022-08-20T13:50:01;3.10;;;2.10;;
18048;SDS011;9149;47.002;8.604;2022-08-20T13:52:30;3.47;;;1.80;;
18048;SDS011;9149;47.002;8.604;2022-08-20T13:55:01;3.53;;;1.70;;
18048;SDS011;9149;47.002;8.604;2022-08-20T13:57:32;6.70;;;1.92;;
18048;SDS011;9149;47.002;8.604;2022-08-20T14:00:00;2.53;;;1.80;;
18048;SDS011;9149;47.002;8.604;2022-08-20T14:02:29;3.35;;;1.88;;
18048;SDS011;9149;47.002;8.604;2022-08-20T14:04:58;2.30;;;1.90;;
18048;SDS011;9149;47.002;8.604;2022-08-20T14:07:27;3.47;;;1.90;;
18048;SDS011;9149;47.002;8.604;2022-08-20T14:09:59;1.80;;;1.55;;
18048;SDS011;9149;47.002;8.604;2022-08-20T14:12:28;2.03;;;1.40;;
18048;SDS011;9149;47.002;8.604;2022-08-20T14:14:56;2.38;;;1.58;;
18048;SDS011;9149;47.002;8.604;2022-08-20T14:17:25;2.50;;;1.75;;
18048;SDS011;9149;47.002;8.604;2022-08-20T14:19:54;2.60;;;1.90;;
18048;SDS011;9149;47.002;8.604;2022-08-20T14:22:28;1.70;;;1.45;;
18048;SDS011;9149;47.002;8.604;2022-08-20T14:24:56;3.47;;;1.63;;
18048;SDS011;9149;47.002;8.604;2022-08-20T14:27:24;2.63;;;1.50;;
18048;SDS011;9149;47.002;8.604;2022-08-20T14:29:57;2.47;;;1.60;;
18048;SDS011;9149;47.002;8.604;2022-08-20T14:32:25;2.55;;;1.80;;
18048;SDS011;9149;47.002;8.604;2022-08-20T14:34:53;2.60;;;1.67;;
18048;SDS011;9149;47.002;8.604;2022-08-20T14:37:26;3.10;;;1.95;;
18048;SDS011;9149;47.002;8.604;2022-08-20T14:39:56;2.25;;;1.65;;
18048;SDS011;9149;47.002;8.604;2022-08-20T14:42:25;1.98;;;1.50;;
18048;SDS011;9149;47.002;8.604;2022-08-20T14:44:53;2.28;;;1.77;;
18048;SDS011;9149;47.002;8.604;2022-08-20T14:47:22;2.53;;;1.73;;
18048;SDS011;9149;47.002;8.604;2022-08-20T14:49:50;7.20;;;1.83;;
18048;SDS011;9149;47.002;8.604;2022-08-20T14:52:19;2.47;;;1.83;;
18048;SDS011;9149;47.002;8.604;2022-08-20T14:54:49;2.22;;;1.55;;
18048;SDS011;9149;47.002;8.604;2022-08-20T14:57:18;1.95;;;1.50;;
18048;SDS011;9149;47.002;8.604;2022-08-20T14:59:47;2.33;;;1.63;;
18048;SDS011;9149;47.002;8.604;2022-08-20T15:02:15;3.92;;;1.83;;
18048;SDS011;9149;47.002;8.604;2022-08-20T15:04:43;2.63;;;1.75;;
18048;SDS011;9149;47.002;8.604;2022-08-20T15:07:22;2.88;;;1.88;;
18048;SDS011;9149;47.002;8.604;2022-08-20T15:09:51;2.22;;;1.65;;